Time;durP1;ratioP1;P1;durP2;ratioP2;P2;SDS_P1;SDS_P2;PMS_P1;PMS_P2;Temp;Humidity;BMP_temperature;BMP_pressure;BME280_temperature;BME280_humidity;BME280_pressure;Samples;Min_cycle;Max_cycle;Signal;HPM_P1;HPM_P2
2022/05/15 00:00:40;;;;;;;11.55;7.78;;;15.60;99.90;;;;;;5096231;28;20269;-57
2022/05/15 00:03:12;;;;;;;11.90;7.30;;;15.40;99.90;;;;;;5096773;28;20289;-55
2022/05/15 00:05:40;;;;;;;10.27;7.73;;;15.30;99.90;;;;;;5096797;28;20233;-54
2022/05/15 00:08:09;;;;;;;15.10;8.20;;;15.40;99.90;;;;;;5096673;28;20470;-54
2022/05/15 00:10:39;;;;;;;11.35;7.47;;;15.50;99.90;;;;;;5096393;28;20444;-58
2022/05/15 00:13:07;;;;;;;8.68;6.78;;;15.50;99.90;;;;;;5096252;28;20230;-53
2022/05/15 00:15:34;;;;;;;8.13;7.22;;;15.50;99.90;;;;;;5096759;28;20214;-56
2022/05/15 00:18:03;;;;;;;12.82;7.10;;;15.40;99.90;;;;;;5095996;28;20523;-57
2022/05/15 00:20:31;;;;;;;9.10;7.03;;;15.40;99.90;;;;;;5096698;28;20204;-54
2022/05/15 00:22:59;;;;;;;12.23;7.30;;;15.40;99.90;;;;;;5096322;28;20428;-56
2022/05/15 00:25:27;;;;;;;7.10;5.40;;;15.40;99.90;;;;;;5096622;28;20261;-54
2022/05/15 00:27:54;;;;;;;8.13;5.80;;;15.30;99.90;;;;;;5096701;28;20213;-55
2022/05/15 00:30:22;;;;;;;6.70;6.10;;;15.30;99.90;;;;;;5096070;28;20458;-54
2022/05/15 00:32:49;;;;;;;8.90;6.13;;;15.30;99.90;;;;;;5095608;28;20781;-55
2022/05/15 00:35:17;;;;;;;9.45;5.80;;;15.30;99.90;;;;;;5095715;28;20397;-58
2022/05/15 00:37:44;;;;;;;9.82;5.90;;;15.30;99.90;;;;;;5096218;28;20204;-54
2022/05/15 00:40:14;;;;;;;5.50;5.00;;;15.10;99.90;;;;;;5095459;28;20212;-57
2022/05/15 00:42:43;;;;;;;5.53;4.80;;;15.10;99.90;;;;;;5097187;28;20485;-57
2022/05/15 00:45:12;;;;;;;10.30;6.40;;;15.10;99.90;;;;;;5099308;28;20199;-58
2022/05/15 00:47:40;;;;;;;5.10;4.60;;;15.10;99.90;;;;;;5096797;28;20219;-57
2022/05/15 00:50:11;;;;;;;8.68;4.00;;;15.00;99.90;;;;;;5095549;28;20213;-59
2022/05/15 00:52:44;;;;;;;12.55;4.93;;;15.00;99.90;;;;;;5095580;28;20299;-57
2022/05/15 00:55:26;;;;;;;9.77;5.22;;;14.90;99.90;;;;;;5095646;28;20230;-55
2022/05/15 00:58:03;;;;;;;7.88;4.10;;;14.90;99.90;;;;;;5095424;28;20273;-57
2022/05/15 01:00:33;;;;;;;9.13;3.45;;;14.90;99.90;;;;;;5094079;28;20275;-55
2022/05/15 01:03:00;;;;;;;6.18;3.22;;;14.90;99.90;;;;;;5108198;28;20282;-58
2022/05/15 01:05:27;;;;;;;9.20;5.18;;;14.80;99.90;;;;;;5118271;28;20516;-57
2022/05/15 01:07:55;;;;;;;5.18;3.17;;;14.80;99.90;;;;;;5117957;28;20265;-55
2022/05/15 01:10:22;;;;;;;6.03;3.42;;;14.80;99.90;;;;;;5117036;28;20217;-56
2022/05/15 01:12:51;;;;;;;3.20;3.00;;;14.80;99.90;;;;;;5117534;28;20221;-54
2022/05/15 01:15:22;;;;;;;11.07;4.18;;;14.80;99.90;;;;;;5115810;28;20225;-57
2022/05/15 01:17:50;;;;;;;6.72;3.83;;;14.70;99.90;;;;;;5115755;28;20208;-56
2022/05/15 01:20:21;;;;;;;4.55;2.70;;;14.70;99.90;;;;;;5115402;28;20281;-56
2022/05/15 01:22:48;;;;;;;11.55;4.38;;;14.60;99.90;;;;;;5115148;28;20292;-55
2022/05/15 01:25:28;;;;;;;4.35;2.80;;;14.60;99.90;;;;;;5115254;28;20216;-55
2022/05/15 01:28:10;;;;;;;6.82;3.63;;;14.70;99.90;;;;;;5102096;28;20197;-56
2022/05/15 01:30:41;;;;;;;6.88;3.63;;;14.70;99.90;;;;;;5093875;28;20357;-53
2022/05/15 01:33:09;;;;;;;3.92;3.50;;;14.70;99.90;;;;;;5093936;28;20218;-55
2022/05/15 01:35:37;;;;;;;8.68;4.13;;;14.60;99.90;;;;;;5095111;28;20231;-54
2022/05/15 01:38:06;;;;;;;11.23;4.45;;;14.70;99.90;;;;;;5094376;28;20204;-56
2022/05/15 01:40:34;;;;;;;6.10;3.83;;;15.00;99.90;;;;;;5095344;28;20194;-58
2022/05/15 01:43:02;;;;;;;6.95;4.10;;;15.00;99.90;;;;;;5094971;28;20223;-58
2022/05/15 01:45:30;;;;;;;9.63;4.18;;;15.10;99.90;;;;;;5095064;28;20398;-57
2022/05/15 01:47:58;;;;;;;6.53;3.38;;;15.10;99.90;;;;;;5095311;28;20212;-55
2022/05/15 01:50:25;;;;;;;5.70;3.35;;;15.00;99.90;;;;;;5094963;28;20210;-55
2022/05/15 01:52:52;;;;;;;6.75;4.07;;;14.90;99.90;;;;;;5095031;28;20233;-55
2022/05/15 01:55:20;;;;;;;6.90;5.07;;;14.90;99.90;;;;;;5094438;28;20229;-55
2022/05/15 01:57:47;;;;;;;5.53;4.57;;;14.90;99.90;;;;;;5095020;28;20202;-52
2022/05/15 02:00:24;;;;;;;6.15;4.50;;;14.90;99.90;;;;;;5095278;28;20417;-58
2022/05/15 02:02:51;;;;;;;5.18;4.22;;;14.70;99.90;;;;;;5095278;28;20264;-57
2022/05/15 02:05:20;;;;;;;9.77;5.00;;;14.50;99.90;;;;;;5095349;28;20212;-54
2022/05/15 02:07:48;;;;;;;6.20;4.95;;;14.40;99.90;;;;;;5095730;28;20257;-55
2022/05/15 02:10:16;;;;;;;8.07;4.80;;;14.30;99.90;;;;;;5095379;28;20392;-54
2022/05/15 02:12:44;;;;;;;6.40;5.28;;;14.20;99.90;;;;;;5094746;28;20226;-55
2022/05/15 02:15:12;;;;;;;6.47;4.55;;;14.10;99.90;;;;;;5097877;28;20230;-53
2022/05/15 02:17:39;;;;;;;6.35;4.70;;;14.10;99.90;;;;;;5098898;28;20257;-57
2022/05/15 02:20:13;;;;;;;6.45;5.30;;;14.10;99.90;;;;;;5098013;28;20202;-56
2022/05/15 02:22:41;;;;;;;4.60;4.20;;;14.10;99.90;;;;;;5098704;28;20312;-55
2022/05/15 02:25:11;;;;;;;4.50;4.10;;;14.10;99.90;;;;;;5098250;28;20579;-51
2022/05/15 02:27:39;;;;;;;5.55;5.05;;;14.10;99.90;;;;;;5098695;28;20462;-55
2022/05/15 02:30:08;;;;;;;7.32;5.25;;;14.00;99.90;;;;;;5098505;28;20657;-54
2022/05/15 02:32:35;;;;;;;7.35;4.65;;;14.00;99.90;;;;;;5098659;28;20307;-56
2022/05/15 02:35:03;;;;;;;12.10;6.03;;;13.80;99.90;;;;;;5098294;28;20232;-53
2022/05/15 02:37:30;;;;;;;4.88;4.10;;;13.70;99.90;;;;;;5098343;28;20202;-55
2022/05/15 02:39:58;;;;;;;9.48;4.63;;;13.70;99.90;;;;;;5097035;28;20380;-52
2022/05/15 02:42:26;;;;;;;17.92;5.18;;;13.60;99.90;;;;;;5097605;28;20298;-57
2022/05/15 02:44:53;;;;;;;3.92;3.63;;;13.60;99.90;;;;;;5098003;28;20245;-58
2022/05/15 02:47:21;;;;;;;9.43;5.28;;;13.50;99.90;;;;;;5097528;28;20206;-56
2022/05/15 02:52:34;;;;;;;6.55;4.95;;;13.40;99.90;;;;;;5097632;28;20232;-53
2022/05/15 02:55:02;;;;;;;9.40;5.28;;;13.50;99.90;;;;;;5097521;28;20358;-54
2022/05/15 02:57:29;;;;;;;8.63;4.57;;;13.40;99.90;;;;;;5097826;28;20202;-58
2022/05/15 02:59:56;;;;;;;7.55;4.80;;;13.50;99.90;;;;;;5097523;28;20481;-55
2022/05/15 03:02:24;;;;;;;5.28;4.40;;;13.50;99.90;;;;;;5097889;28;20540;-53
2022/05/15 03:04:51;;;;;;;7.40;5.20;;;13.40;99.90;;;;;;5097472;28;20208;-55
2022/05/15 03:07:19;;;;;;;9.30;4.38;;;13.30;99.90;;;;;;5097666;28;20536;-56
2022/05/15 03:09:47;;;;;;;9.57;5.90;;;13.40;99.90;;;;;;5097683;28;20205;-55
2022/05/15 03:12:15;;;;;;;7.32;5.70;;;13.50;99.90;;;;;;5097968;28;20234;-54
2022/05/15 03:14:42;;;;;;;5.13;3.78;;;13.40;99.90;;;;;;5098078;28;20244;-59
2022/05/15 03:17:09;;;;;;;5.65;4.20;;;13.40;99.90;;;;;;5098465;28;20212;-54
2022/05/15 03:19:36;;;;;;;8.20;4.90;;;13.50;99.90;;;;;;5097638;28;20202;-60
2022/05/15 03:22:04;;;;;;;5.25;4.25;;;13.60;99.90;;;;;;5097194;28;20567;-56
2022/05/15 03:24:31;;;;;;;5.25;4.50;;;13.80;99.90;;;;;;5097554;28;20206;-58
2022/05/15 03:26:58;;;;;;;6.97;4.65;;;13.80;99.90;;;;;;5097036;28;20261;-58
2022/05/15 03:29:26;;;;;;;4.72;4.30;;;13.80;99.90;;;;;;5097413;28;20501;-57
2022/05/15 03:31:53;;;;;;;4.78;4.13;;;14.00;99.90;;;;;;5097793;28;20240;-58
2022/05/15 03:34:21;;;;;;;8.30;4.45;;;14.10;99.90;;;;;;5102021;28;20330;-54
2022/05/15 03:36:51;;;;;;;7.55;3.47;;;14.10;99.90;;;;;;5090562;28;20225;-54
2022/05/15 03:39:20;;;;;;;7.40;4.88;;;14.10;99.90;;;;;;5094447;28;20277;-57
2022/05/15 03:41:48;;;;;;;7.80;4.60;;;14.10;99.90;;;;;;5105211;28;20226;-55
2022/05/15 03:44:16;;;;;;;6.07;5.57;;;14.30;99.90;;;;;;5116213;28;20225;-51
2022/05/15 03:46:43;;;;;;;6.93;4.93;;;14.20;99.90;;;;;;5117491;28;20219;-57
2022/05/15 03:49:13;;;;;;;6.93;5.53;;;14.10;99.90;;;;;;5117561;28;20305;-52
2022/05/15 03:51:42;;;;;;;10.65;5.25;;;13.90;99.90;;;;;;5117418;28;20324;-53
2022/05/15 03:54:09;;;;;;;4.80;4.18;;;13.90;99.90;;;;;;5117355;28;20302;-57
2022/05/15 03:56:51;;;;;;;6.53;4.85;;;13.80;99.90;;;;;;5117577;28;20268;-56
2022/05/15 03:59:31;;;;;;;8.18;3.90;;;13.80;99.90;;;;;;5115843;28;20201;-57
2022/05/15 04:01:59;;;;;;;11.90;4.72;;;13.80;99.90;;;;;;5116288;28;20213;-55
2022/05/15 04:04:26;;;;;;;6.50;4.25;;;13.90;99.90;;;;;;5117374;28;20280;-55
2022/05/15 04:06:54;;;;;;;5.28;3.22;;;14.00;99.90;;;;;;5117233;28;20397;-52
2022/05/15 04:09:22;;;;;;;6.63;3.95;;;14.20;99.90;;;;;;5116988;28;20201;-55
2022/05/15 04:11:49;;;;;;;12.38;4.30;;;14.20;99.90;;;;;;5117278;28;20575;-55
2022/05/15 04:14:16;;;;;;;6.50;4.68;;;14.20;99.90;;;;;;5116765;28;20229;-54
2022/05/15 04:16:43;;;;;;;7.20;3.70;;;14.10;99.90;;;;;;5117021;28;20384;-57
2022/05/15 04:19:11;;;;;;;6.22;3.25;;;14.00;99.90;;;;;;5116693;28;20272;-56
2022/05/15 04:21:40;;;;;;;5.65;4.20;;;14.00;99.90;;;;;;5116724;28;20293;-57
2022/05/15 04:24:10;;;;;;;6.30;3.20;;;14.00;99.90;;;;;;5116582;28;20208;-56
2022/05/15 04:26:39;;;;;;;3.95;3.58;;;13.80;99.90;;;;;;5114830;28;20404;-54
2022/05/15 04:29:07;;;;;;;5.97;4.35;;;13.70;99.90;;;;;;5098219;28;20277;-58
2022/05/15 04:31:35;;;;;;;6.07;4.00;;;13.90;99.90;;;;;;5097658;28;20381;-58
2022/05/15 04:34:03;;;;;;;4.55;3.75;;;14.10;99.90;;;;;;5096675;28;20228;-57
2022/05/15 04:36:33;;;;;;;5.18;3.03;;;14.30;99.90;;;;;;5095689;28;20222;-53
2022/05/15 04:39:03;;;;;;;3.33;3.00;;;14.50;99.90;;;;;;5095240;28;20233;-54
2022/05/15 04:41:31;;;;;;;4.13;3.35;;;14.40;99.90;;;;;;5096248;28;20285;-53
2022/05/15 04:43:58;;;;;;;7.03;3.72;;;14.40;99.90;;;;;;5095932;28;20523;-56
2022/05/15 04:46:29;;;;;;;4.90;3.40;;;14.40;99.90;;;;;;5096896;28;20225;-55
2022/05/15 04:48:58;;;;;;;5.63;3.47;;;14.60;99.90;;;;;;5095904;28;20202;-55
2022/05/15 04:51:26;;;;;;;4.18;3.40;;;14.70;99.90;;;;;;5096117;28;20310;-55
2022/05/15 04:53:54;;;;;;;4.05;2.85;;;14.80;99.90;;;;;;5095521;28;20194;-55
2022/05/15 04:56:21;;;;;;;6.53;3.15;;;14.80;99.90;;;;;;5096658;28;20290;-56
2022/05/15 04:58:49;;;;;;;8.32;3.67;;;14.70;99.90;;;;;;5097153;28;20209;-53
2022/05/15 05:01:18;;;;;;;4.85;3.50;;;14.90;99.90;;;;;;5095088;28;20304;-57
2022/05/15 05:03:45;;;;;;;3.78;2.70;;;15.10;99.90;;;;;;5095339;28;20442;-57
2022/05/15 05:06:12;;;;;;;6.15;3.40;;;15.20;99.90;;;;;;5095441;28;20458;-53
2022/05/15 05:08:39;;;;;;;3.00;2.60;;;15.30;99.90;;;;;;5095617;28;20214;-54
2022/05/15 05:11:06;;;;;;;4.03;2.83;;;15.40;99.90;;;;;;5095718;28;20463;-56
2022/05/15 05:13:34;;;;;;;5.23;4.10;;;15.40;99.90;;;;;;5096515;28;20210;-52
2022/05/15 05:16:01;;;;;;;4.03;3.22;;;15.40;99.90;;;;;;5095375;28;20819;-57
2022/05/15 05:18:28;;;;;;;3.73;2.70;;;15.50;99.90;;;;;;5096393;28;20295;-55
2022/05/15 05:21:01;;;;;;;2.97;2.47;;;15.60;99.90;;;;;;5095166;28;20435;-55
2022/05/15 05:23:28;;;;;;;5.37;3.30;;;15.40;99.90;;;;;;5095314;28;20204;-56
2022/05/15 05:25:59;;;;;;;3.27;2.90;;;15.50;99.90;;;;;;5095079;28;20621;-56
2022/05/15 05:28:27;;;;;;;4.27;2.10;;;15.60;99.90;;;;;;5094632;28;20481;-57
2022/05/15 05:30:54;;;;;;;3.97;2.00;;;15.70;99.90;;;;;;5094382;28;20438;-56
2022/05/15 05:33:22;;;;;;;3.30;2.60;;;15.50;99.90;;;;;;5095226;28;20417;-55
2022/05/15 05:35:50;;;;;;;3.83;2.20;;;15.60;99.90;;;;;;5094766;28;20516;-52
2022/05/15 05:38:17;;;;;;;2.40;1.80;;;15.40;99.90;;;;;;5095646;28;20406;-56
2022/05/15 05:40:45;;;;;;;4.15;2.05;;;15.60;99.90;;;;;;5095094;28;20530;-53
2022/05/15 05:43:12;;;;;;;6.60;2.33;;;15.80;99.90;;;;;;5094532;28;20210;-55
2022/05/15 05:45:39;;;;;;;2.80;2.07;;;15.80;99.90;;;;;;5095152;28;20707;-58
2022/05/15 05:48:07;;;;;;;2.43;2.23;;;16.10;99.90;;;;;;5095245;28;20408;-52
2022/05/15 05:50:34;;;;;;;3.40;2.07;;;16.20;99.90;;;;;;5099422;28;20726;-53
2022/05/15 05:53:01;;;;;;;6.33;2.20;;;16.40;99.90;;;;;;5098817;28;20696;-54
2022/05/15 05:55:29;;;;;;;3.47;2.73;;;16.60;99.90;;;;;;5099044;28;20471;-55
2022/05/15 05:57:57;;;;;;;7.33;3.13;;;16.70;99.90;;;;;;5098443;28;20440;-55
2022/05/15 06:00:28;;;;;;;5.03;3.20;;;16.70;99.90;;;;;;5098791;28;20405;-58
2022/05/15 06:04:39;;;;;;;4.73;1.80;;;16.90;99.90;;;;;;5098933;28;20811;-54
2022/05/15 06:05:49;;;;;;;9.23;2.23;;;17.20;99.90;;;;;;5098205;28;20455;-57
2022/05/15 06:08:18;;;;;;;4.63;2.80;;;17.30;99.90;;;;;;5108490;28;20755;-55
2022/05/15 06:10:45;;;;;;;2.33;2.13;;;17.30;99.90;;;;;;5113693;28;20444;-56
2022/05/15 06:13:13;;;;;;;2.10;1.43;;;17.20;99.90;;;;;;5118872;27;20479;-56
2022/05/15 06:15:40;;;;;;;4.07;2.23;;;17.40;99.90;;;;;;5111985;28;20698;-56
2022/05/15 06:18:08;;;;;;;4.13;2.07;;;17.60;99.90;;;;;;5094446;28;20427;-54
2022/05/15 06:20:35;;;;;;;1.97;1.77;;;17.80;99.90;;;;;;5110045;28;20424;-53
2022/05/15 06:23:03;;;;;;;3.10;2.50;;;17.90;99.90;;;;;;5118362;28;20898;-57
2022/05/15 06:25:31;;;;;;;5.70;2.83;;;17.80;99.90;;;;;;5120679;28;20416;-59
2022/05/15 06:27:58;;;;;;;2.90;1.90;;;18.30;99.90;;;;;;5107045;28;20843;-53
2022/05/15 06:30:25;;;;;;;1.87;1.67;;;19.00;99.90;;;;;;5098233;28;20440;-58
2022/05/15 06:32:52;;;;;;;3.43;2.30;;;19.30;99.90;;;;;;5098515;28;20453;-55
2022/05/15 06:35:21;;;;;;;3.63;2.67;;;19.60;99.90;;;;;;5098324;28;20496;-53
2022/05/15 06:37:48;;;;;;;1.73;1.63;;;19.80;99.90;;;;;;5101856;28;20515;-55
2022/05/15 06:40:17;;;;;;;3.77;2.00;;;20.50;99.90;;;;;;5117320;28;20438;-55
2022/05/15 06:42:45;;;;;;;2.53;1.73;;;21.00;99.90;;;;;;5113095;28;20520;-55
2022/05/15 06:45:14;;;;;;;3.63;1.40;;;21.70;99.90;;;;;;5099431;28;20747;-55
2022/05/15 06:47:41;;;;;;;2.63;1.77;;;22.30;99.90;;;;;;5111643;28;20519;-55
2022/05/15 06:50:10;;;;;;;3.90;2.20;;;23.10;99.90;;;;;;5104022;28;20446;-58
2022/05/15 06:52:38;;;;;;;2.73;2.07;;;23.60;98.40;;;;;;5104989;28;20462;-57
2022/05/15 06:55:10;;;;;;;4.17;1.80;;;24.60;96.40;;;;;;5100068;28;20494;-56
2022/05/15 06:57:38;;;;;;;6.30;1.70;;;25.30;93.30;;;;;;5097849;28;20525;-54
2022/05/15 07:00:13;;;;;;;2.83;1.60;;;25.70;91.00;;;;;;5094360;28;20440;-56
2022/05/15 07:02:41;;;;;;;2.77;1.57;;;24.30;91.20;;;;;;5100848;28;20459;-56
2022/05/15 07:05:11;;;;;;;2.10;1.80;;;23.80;92.40;;;;;;5097798;28;20455;-58
2022/05/15 07:07:38;;;;;;;3.47;2.67;;;24.40;92.20;;;;;;5096816;28;20451;-58
2022/05/15 07:10:06;;;;;;;2.53;1.50;;;25.50;91.00;;;;;;5094854;28;20840;-55
2022/05/15 07:12:34;;;;;;;3.43;2.10;;;27.00;85.40;;;;;;5097670;28;20493;-56
2022/05/15 07:15:03;;;;;;;2.90;2.20;;;28.60;79.70;;;;;;5096190;28;20676;-56
2022/05/15 07:17:31;;;;;;;3.40;1.70;;;30.20;74.50;;;;;;5096747;28;20442;-57
2022/05/15 07:19:59;;;;;;;3.40;1.40;;;31.00;69.20;;;;;;5111478;28;20521;-59
2022/05/15 07:22:28;;;;;;;4.10;1.97;;;31.10;65.70;;;;;;5118063;28;20460;-54
2022/05/15 07:24:55;;;;;;;1.53;1.30;;;31.10;63.60;;;;;;5109959;28;20474;-58
2022/05/15 07:27:22;;;;;;;2.80;2.00;;;32.40;60.70;;;;;;5102198;28;20436;-56
2022/05/15 07:29:49;;;;;;;2.37;1.90;;;32.90;60.00;;;;;;5098260;28;20451;-57
2022/05/15 07:32:16;;;;;;;2.50;1.93;;;33.10;57.20;;;;;;5093671;28;20530;-56
2022/05/15 07:34:44;;;;;;;6.80;2.27;;;32.20;57.20;;;;;;5085327;28;20444;-57
2022/05/15 07:37:12;;;;;;;4.90;2.07;;;31.50;57.30;;;;;;5095831;28;20453;-55
2022/05/15 07:39:39;;;;;;;1.73;1.50;;;31.00;58.70;;;;;;5094963;28;20446;-56
2022/05/15 07:42:07;;;;;;;4.70;2.00;;;31.60;57.80;;;;;;5097215;28;20462;-58
2022/05/15 07:44:35;;;;;;;1.70;1.60;;;32.30;56.80;;;;;;5097442;28;20442;-56
2022/05/15 07:47:02;;;;;;;2.47;2.10;;;32.90;55.60;;;;;;5097367;28;20453;-54
2022/05/15 07:49:31;;;;;;;3.67;1.80;;;33.50;54.40;;;;;;5095121;28;20450;-52
2022/05/15 07:52:02;;;;;;;2.23;1.30;;;30.90;56.60;;;;;;5092526;28;20469;-55
2022/05/15 07:54:30;;;;;;;4.10;1.70;;;28.60;59.30;;;;;;5092555;28;20447;-55
2022/05/15 07:56:58;;;;;;;2.93;2.73;;;28.20;61.80;;;;;;5097189;28;20526;-53
2022/05/15 07:59:25;;;;;;;2.93;2.03;;;30.00;60.30;;;;;;5096123;28;20500;-56
2022/05/15 08:01:55;;;;;;;3.97;1.83;;;32.10;56.30;;;;;;5096776;28;20455;-55
2022/05/15 08:04:23;;;;;;;2.00;1.60;;;32.70;54.90;;;;;;5097281;28;20452;-53
2022/05/15 08:09:38;;;;;;;2.63;1.23;;;32.30;55.10;;;;;;5096127;28;20453;-58
2022/05/15 08:12:06;;;;;;;1.83;1.33;;;33.40;53.80;;;;;;5104887;28;20466;-56
2022/05/15 08:14:33;;;;;;;4.93;1.50;;;34.40;52.70;;;;;;5104593;28;20450;-54
2022/05/15 08:17:01;;;;;;;5.83;1.50;;;34.50;51.60;;;;;;5097377;28;20487;-56
2022/05/15 08:25:04;;;;;;;2.37;1.40;;;33.50;52.20;;;;;;5099627;28;20446;-58
2022/05/15 08:27:31;;;;;;;3.50;1.60;;;33.30;52.40;;;;;;5093145;28;20465;-56
2022/05/15 08:29:58;;;;;;;3.13;1.60;;;32.00;53.50;;;;;;5096958;28;20447;-58
2022/05/15 08:32:26;;;;;;;2.20;1.70;;;31.10;54.50;;;;;;5094419;28;20475;-56
2022/05/15 08:34:53;;;;;;;1.80;1.70;;;29.40;56.40;;;;;;5096688;28;20439;-58
2022/05/15 08:37:20;;;;;;;2.87;1.90;;;29.80;56.70;;;;;;5097935;28;20506;-56
2022/05/15 08:39:48;;;;;;;2.20;1.33;;;30.10;55.60;;;;;;5096778;28;20712;-54
2022/05/15 08:42:34;;;;;;;3.27;1.83;;;30.00;55.30;;;;;;5097565;28;20451;-56
2022/05/15 08:45:02;;;;;;;3.20;1.50;;;29.70;56.00;;;;;;5096352;28;20484;-56
2022/05/15 08:47:37;;;;;;;2.27;1.93;;;29.70;56.50;;;;;;5096915;28;20823;-58
2022/05/15 08:50:20;;;;;;;5.90;2.30;;;30.10;57.00;;;;;;5097757;28;20430;-55
2022/05/15 08:53:14;;;;;;;2.67;2.40;;;30.50;56.30;;;;;;5096517;28;20801;-56
2022/05/15 08:55:49;;;;;;;3.20;2.00;;;30.00;56.80;;;;;;5099864;28;20488;-53
2022/05/15 08:58:25;;;;;;;2.47;1.53;;;29.60;57.80;;;;;;5096998;28;20435;-55
2022/05/15 09:00:54;;;;;;;2.10;1.57;;;31.10;55.70;;;;;;5094818;28;20443;-55
2022/05/15 09:03:35;;;;;;;3.90;2.07;;;31.30;55.00;;;;;;5096310;28;20460;-56
2022/05/15 09:06:39;;;;;;;2.50;1.73;;;29.70;57.20;;;;;;4995196;28;20750;-58
2022/05/15 09:10:12;;;;;;;3.10;2.13;;;30.20;56.70;;;;;;5096124;28;20454;-56
2022/05/15 09:12:45;;;;;;;5.03;1.53;;;31.20;55.30;;;;;;5071342;28;20459;-54
2022/05/15 09:15:18;;;;;;;2.37;1.37;;;30.70;55.80;;;;;;5071151;28;20475;-57
2022/05/15 09:17:57;;;;;;;4.93;1.40;;;29.90;56.20;;;;;;5087634;28;20705;-54
2022/05/15 09:20:24;;;;;;;1.60;1.50;;;30.00;56.80;;;;;;5094472;28;20429;-56
2022/05/15 09:23:02;;;;;;;2.07;1.60;;;30.80;55.30;;;;;;5096423;28;20458;-56
2022/05/15 09:25:34;;;;;;;3.30;1.30;;;30.40;54.60;;;;;;5094761;28;20498;-57
2022/05/15 09:28:07;;;;;;;4.33;2.20;;;28.80;56.50;;;;;;5093295;28;20442;-57
2022/05/15 09:30:45;;;;;;;2.03;1.40;;;27.00;59.90;;;;;;5085978;28;20574;-57
2022/05/15 09:33:41;;;;;;;3.03;1.80;;;25.80;63.90;;;;;;5087425;28;20837;-53
2022/05/15 09:36:20;;;;;;;7.53;1.73;;;25.20;65.50;;;;;;5095766;28;20485;-58
2022/05/15 09:38:49;;;;;;;5.10;2.03;;;24.00;67.40;;;;;;5102590;28;20427;-58
2022/05/15 09:44:30;;;;;;;3.60;1.40;;;23.00;72.50;;;;;;5103656;28;20680;-57
2022/05/15 09:47:10;;;;;;;2.53;1.67;;;22.60;73.10;;;;;;5105551;28;20463;-58
2022/05/15 09:49:37;;;;;;;4.80;1.93;;;22.00;73.40;;;;;;5098873;28;20821;-55
2022/05/15 09:52:18;;;;;;;2.90;1.43;;;21.60;75.00;;;;;;5099059;28;20464;-56
2022/05/15 09:54:49;;;;;;;2.00;1.30;;;21.70;74.20;;;;;;5091806;28;20744;-57
2022/05/15 09:57:25;;;;;;;2.60;1.60;;;21.80;73.70;;;;;;5090320;28;20481;-57
2022/05/15 10:00:01;;;;;;;2.20;1.93;;;21.90;75.10;;;;;;5098703;28;20462;-54
2022/05/15 10:02:44;;;;;;;2.10;1.43;;;22.30;73.60;;;;;;5097113;28;20648;-57
2022/05/15 10:05:15;;;;;;;2.87;1.57;;;22.60;72.80;;;;;;5100873;28;20826;-58
2022/05/15 10:07:57;;;;;;;3.47;1.50;;;22.40;70.70;;;;;;5095838;28;20446;-55
2022/05/15 10:10:41;;;;;;;2.90;2.07;;;21.90;72.60;;;;;;5097450;28;20781;-55
2022/05/15 10:13:11;;;;;;;4.03;1.23;;;21.40;74.80;;;;;;5103579;28;20455;-54
2022/05/15 10:15:44;;;;;;;2.80;1.97;;;21.30;73.80;;;;;;5114631;28;20474;-57
2022/05/15 10:18:18;;;;;;;2.83;1.50;;;21.20;73.40;;;;;;5114863;28;20513;-53
2022/05/15 10:20:47;;;;;;;2.40;1.40;;;21.10;75.50;;;;;;5114933;28;20643;-57
2022/05/15 10:23:27;;;;;;;3.33;1.60;;;21.20;74.70;;;;;;5114820;28;20463;-55
2022/05/15 10:25:59;;;;;;;6.83;2.17;;;20.90;74.70;;;;;;5089197;28;20426;-59
2022/05/15 10:28:38;;;;;;;1.43;1.20;;;20.70;76.20;;;;;;5102763;28;20543;-58
2022/05/15 10:31:21;;;;;;;2.30;1.57;;;20.30;76.40;;;;;;5093796;28;20511;-53
2022/05/15 10:33:56;;;;;;;1.33;1.23;;;20.30;77.90;;;;;;5094450;28;20737;-57
2022/05/15 10:36:39;;;;;;;3.20;1.40;;;20.70;77.90;;;;;;5097565;28;20486;-55
2022/05/15 10:39:35;;;;;;;1.77;1.67;;;21.10;78.00;;;;;;5096626;28;20517;-57
2022/05/15 10:42:42;;;;;;;3.80;1.60;;;21.40;77.50;;;;;;5092836;28;20464;-57
2022/05/15 10:45:28;;;;;;;5.87;1.90;;;21.90;74.60;;;;;;5106141;28;20451;-56
2022/05/15 10:48:10;;;;;;;2.03;1.23;;;22.30;73.50;;;;;;5118430;28;20504;-56
2022/05/15 10:51:00;;;;;;;3.00;1.70;;;22.20;73.10;;;;;;5118250;28;20479;-57
2022/05/15 10:57:22;;;;;;;1.53;1.20;;;21.80;73.60;;;;;;5113416;28;20495;-55
2022/05/15 10:59:58;;;;;;;3.70;1.50;;;21.70;75.00;;;;;;5118677;28;20675;-55
2022/05/15 11:02:49;;;;;;;1.40;1.00;;;22.00;74.80;;;;;;5118090;28;20453;-54
2022/05/15 11:05:27;;;;;;;2.20;1.60;;;22.00;72.90;;;;;;5104975;28;20461;-57
2022/05/15 11:08:17;;;;;;;3.13;1.97;;;21.90;71.60;;;;;;5113341;28;20425;-55
2022/05/15 11:11:12;;;;;;;5.53;2.03;;;21.70;72.50;;;;;;5118367;28;20429;-59
2022/05/15 11:13:47;;;;;;;4.20;1.90;;;21.70;72.40;;;;;;5101737;27;20435;-54
2022/05/15 11:16:24;;;;;;;1.40;1.10;;;21.60;71.50;;;;;;5097497;28;20469;-56
2022/05/15 11:19:06;;;;;;;1.80;1.10;;;21.60;72.80;;;;;;5097060;28;20457;-59
2022/05/15 11:22:12;;;;;;;1.70;1.57;;;21.60;71.80;;;;;;5103895;28;20467;-55
2022/05/15 11:25:09;;;;;;;1.83;1.60;;;21.30;72.80;;;;;;5076598;28;20440;-57
2022/05/15 11:27:47;;;;;;;4.10;1.13;;;20.70;73.20;;;;;;5086768;28;20516;-56
2022/05/15 11:30:28;;;;;;;1.07;1.00;;;20.60;71.00;;;;;;5096731;28;20585;-56
2022/05/15 11:33:01;;;;;;;2.60;1.97;;;20.30;72.60;;;;;;5097365;28;20460;-56
2022/05/15 11:35:33;;;;;;;2.50;0.97;;;20.20;74.20;;;;;;5097009;28;20403;-56
2022/05/15 11:38:05;;;;;;;2.23;1.13;;;20.30;73.20;;;;;;5096040;28;20670;-56
2022/05/15 11:40:38;;;;;;;3.70;1.57;;;20.30;73.50;;;;;;5097162;28;20506;-54
2022/05/15 11:43:28;;;;;;;2.03;1.67;;;20.60;72.90;;;;;;5096371;28;20925;-55
2022/05/15 11:45:59;;;;;;;1.07;1.07;;;20.80;72.50;;;;;;5096775;28;20462;-55
2022/05/15 11:48:32;;;;;;;1.33;1.20;;;21.00;72.00;;;;;;5096607;28;20481;-55
2022/05/15 11:51:04;;;;;;;2.23;1.40;;;21.10;72.10;;;;;;5104010;28;20463;-56
2022/05/15 11:53:54;;;;;;;4.27;1.50;;;21.20;72.00;;;;;;5117143;28;20431;-58
2022/05/15 11:56:54;;;;;;;2.20;1.20;;;21.20;72.10;;;;;;5029011;28;20860;-60
2022/05/15 11:59:33;;;;;;;2.53;1.30;;;21.20;72.60;;;;;;5081021;28;20671;-58
2022/05/15 12:02:12;;;;;;;2.33;1.27;;;21.50;74.50;;;;;;5096524;28;20665;-54
2022/05/15 12:04:46;;;;;;;1.67;1.13;;;21.40;70.70;;;;;;5096859;28;20419;-55
2022/05/15 12:07:16;;;;;;;2.60;1.63;;;21.10;71.30;;;;;;5095895;28;20421;-56
2022/05/15 12:09:52;;;;;;;2.90;1.63;;;20.80;70.70;;;;;;5096941;28;20448;-54
2022/05/15 12:12:30;;;;;;;4.10;1.77;;;20.80;70.90;;;;;;5096238;28;20519;-59
2022/05/15 12:15:21;;;;;;;1.97;1.70;;;20.90;69.20;;;;;;5096730;28;20408;-57
2022/05/15 12:17:51;;;;;;;1.57;1.30;;;21.00;69.20;;;;;;5096140;28;20475;-56
2022/05/15 12:20:21;;;;;;;2.20;1.50;;;21.20;70.50;;;;;;5104856;28;20438;-57
2022/05/15 12:22:55;;;;;;;1.93;1.37;;;21.40;68.80;;;;;;5116798;28;20454;-57
2022/05/15 12:25:29;;;;;;;1.07;1.00;;;21.60;67.50;;;;;;5116895;28;20527;-57
2022/05/15 12:30:53;;;;;;;1.00;0.90;;;21.60;70.10;;;;;;5097882;28;20542;-53
2022/05/15 12:33:26;;;;;;;2.30;1.20;;;21.50;70.40;;;;;;5095182;28;20658;-55
2022/05/15 12:35:55;;;;;;;8.20;3.40;;;21.30;70.60;;;;;;5097309;28;20441;-56
2022/05/15 12:38:24;;;;;;;1.30;1.20;;;21.20;71.00;;;;;;5095893;28;20635;-54
2022/05/15 12:41:12;;;;;;;3.50;1.27;;;21.20;68.20;;;;;;5095006;28;20519;-55
2022/05/15 12:43:45;;;;;;;2.33;1.23;;;21.20;67.70;;;;;;5095444;28;20433;-56
2022/05/15 12:46:27;;;;;;;12.13;1.30;;;21.10;68.90;;;;;;5095444;28;20893;-62
2022/05/15 12:48:54;;;;;;;1.43;1.33;;;21.30;69.40;;;;;;5097230;28;20441;-56
2022/05/15 12:51:29;;;;;;;9.67;1.57;;;21.40;69.30;;;;;;5105617;28;20433;-56
2022/05/15 12:53:57;;;;;;;2.83;1.80;;;21.60;68.90;;;;;;5095639;28;20520;-59
2022/05/15 12:56:35;;;;;;;3.33;1.53;;;22.00;67.70;;;;;;5094745;28;20474;-57
2022/05/15 12:59:18;;;;;;;1.93;1.30;;;22.10;68.00;;;;;;5096949;28;20445;-59
2022/05/15 13:01:47;;;;;;;1.10;1.00;;;22.00;68.20;;;;;;5092217;28;20466;-53
2022/05/15 13:04:21;;;;;;;1.60;1.23;;;21.90;66.70;;;;;;5091215;28;20501;-56
2022/05/15 13:06:52;;;;;;;1.70;1.17;;;21.80;67.50;;;;;;5094923;28;20451;-56
2022/05/15 13:09:24;;;;;;;4.93;2.37;;;21.80;66.60;;;;;;5094343;28;20638;-54
2022/05/15 13:11:57;;;;;;;2.63;1.63;;;21.90;66.80;;;;;;5088714;28;20458;-58
2022/05/15 13:14:27;;;;;;;3.00;1.40;;;21.90;66.50;;;;;;5093919;28;20452;-56
2022/05/15 13:16:56;;;;;;;1.37;1.20;;;21.80;65.70;;;;;;5115440;28;20478;-57
2022/05/15 13:19:36;;;;;;;1.37;1.27;;;21.80;66.50;;;;;;5115868;28;20796;-57
2022/05/15 13:22:04;;;;;;;1.10;0.83;;;21.70;65.30;;;;;;5116467;28;20450;-54
2022/05/15 13:24:33;;;;;;;1.40;1.30;;;21.30;65.90;;;;;;5107366;28;20750;-55
2022/05/15 13:27:04;;;;;;;1.27;1.17;;;21.20;66.50;;;;;;5085019;28;20418;-58
2022/05/15 13:29:35;;;;;;;1.37;1.07;;;21.20;68.30;;;;;;5099206;28;20498;-56